Time;durP1;ratioP1;P1;durP2;ratioP2;P2;SDS_P1;SDS_P2;PMS_P1;PMS_P2;Temp;Humidity;BMP_temperature;BMP_pressure;BME280_temperature;BME280_humidity;BME280_pressure;Samples;Min_cycle;Max_cycle;Signal;HPM_P1;HPM_P2
2024/03/27 00:00:33;;;;;;;20.23;8.32;;;5.70;100.00;;;;;;4945590;28;20119;-73
2024/03/27 00:02:59;;;;;;;18.88;8.85;;;5.70;100.00;;;;;;4948657;28;20535;-73
2024/03/27 00:05:25;;;;;;;23.27;9.00;;;5.80;100.00;;;;;;4945830;29;20054;-73
2024/03/27 00:07:51;;;;;;;17.13;8.38;;;5.80;100.00;;;;;;4945008;28;20677;-73
2024/03/27 00:10:17;;;;;;;28.08;9.13;;;5.80;100.00;;;;;;4949423;28;20063;-73
2024/03/27 00:12:43;;;;;;;20.73;8.63;;;5.80;100.00;;;;;;4944334;28;20095;-74
2024/03/27 00:15:09;;;;;;;22.38;8.77;;;5.80;100.00;;;;;;4929469;29;20503;-73
2024/03/27 00:17:35;;;;;;;19.02;9.15;;;5.80;100.00;;;;;;4929708;29;20074;-73
2024/03/27 00:20:01;;;;;;;23.35;8.02;;;5.70;100.00;;;;;;4945481;28;20051;-73
2024/03/27 00:22:26;;;;;;;18.63;8.00;;;5.80;100.00;;;;;;4929485;29;20099;-73
2024/03/27 00:24:52;;;;;;;15.77;7.93;;;5.70;100.00;;;;;;4945348;28;20067;-73
2024/03/27 00:27:18;;;;;;;19.67;8.45;;;5.70;100.00;;;;;;4929301;29;20055;-73
2024/03/27 00:29:44;;;;;;;21.50;8.65;;;5.70;100.00;;;;;;4944062;28;20055;-73
2024/03/27 00:32:10;;;;;;;18.65;8.82;;;5.70;100.00;;;;;;4928337;29;20062;-73
2024/03/27 00:34:36;;;;;;;18.67;7.72;;;5.70;100.00;;;;;;4944555;28;20055;-73
2024/03/27 00:37:03;;;;;;;21.10;8.63;;;5.70;100.00;;;;;;4948606;28;20544;-73
2024/03/27 00:39:28;;;;;;;19.02;8.95;;;5.60;100.00;;;;;;4928486;28;20047;-73
2024/03/27 00:41:54;;;;;;;20.83;9.25;;;5.60;100.00;;;;;;4944711;28;20055;-73
2024/03/27 00:44:20;;;;;;;18.70;8.93;;;5.50;100.00;;;;;;4941638;28;20134;-73
2024/03/27 00:46:46;;;;;;;17.40;7.80;;;5.50;100.00;;;;;;4924461;29;20058;-73
2024/03/27 00:49:13;;;;;;;17.08;8.15;;;5.40;100.00;;;;;;4946458;28;20063;-73
2024/03/27 00:51:38;;;;;;;19.67;8.77;;;5.40;100.00;;;;;;4944658;28;20133;-73
2024/03/27 00:54:04;;;;;;;21.13;8.93;;;5.40;100.00;;;;;;4943664;28;20047;-73
2024/03/27 00:56:30;;;;;;;20.67;8.45;;;5.40;100.00;;;;;;4943165;28;20051;-73
2024/03/27 00:58:56;;;;;;;18.33;8.82;;;5.30;100.00;;;;;;4943200;28;20048;-73
2024/03/27 01:01:23;;;;;;;19.02;8.75;;;5.30;100.00;;;;;;4944031;28;20126;-73
2024/03/27 01:03:48;;;;;;;18.15;7.88;;;5.30;100.00;;;;;;4928879;28;20059;-73
2024/03/27 01:06:15;;;;;;;23.77;8.05;;;5.20;100.00;;;;;;4945630;28;20039;-73
2024/03/27 01:08:41;;;;;;;18.50;8.48;;;5.10;100.00;;;;;;4937790;28;20067;-73
2024/03/27 01:11:08;;;;;;;16.88;8.38;;;5.00;100.00;;;;;;4944997;29;20149;-73
2024/03/27 01:13:34;;;;;;;19.48;8.32;;;5.00;100.00;;;;;;4943157;28;20715;-73
2024/03/27 01:15:59;;;;;;;19.48;8.68;;;5.00;100.00;;;;;;4944271;29;20066;-73
2024/03/27 01:18:26;;;;;;;19.75;8.35;;;4.90;100.00;;;;;;4946152;28;20520;-73
2024/03/27 01:20:52;;;;;;;20.52;8.77;;;4.90;100.00;;;;;;4943782;28;20155;-73
2024/03/27 01:23:17;;;;;;;21.92;8.57;;;4.80;100.00;;;;;;4943768;28;20110;-73
2024/03/27 01:25:44;;;;;;;20.73;9.50;;;4.80;100.00;;;;;;4943632;28;20047;-73
2024/03/27 01:28:10;;;;;;;20.20;8.90;;;4.70;100.00;;;;;;4927506;28;20563;-73
2024/03/27 01:30:36;;;;;;;18.02;8.15;;;4.70;100.00;;;;;;4944819;28;20077;-73
2024/03/27 01:33:02;;;;;;;19.88;8.10;;;4.60;100.00;;;;;;4946343;28;20058;-73
2024/03/27 01:35:29;;;;;;;21.77;8.93;;;4.50;100.00;;;;;;4944184;28;20120;-73
2024/03/27 01:37:54;;;;;;;24.08;8.50;;;4.40;100.00;;;;;;4929876;28;20086;-73
2024/03/27 01:40:21;;;;;;;18.52;8.75;;;4.40;100.00;;;;;;4924762;29;20055;-73
2024/03/27 01:43:00;;;;;;;22.98;9.27;;;4.30;100.00;;;;;;4939063;28;20060;-73
2024/03/27 01:45:27;;;;;;;19.05;8.07;;;4.30;100.00;;;;;;4942916;28;20927;-73
2024/03/27 01:47:53;;;;;;;20.52;9.07;;;4.20;100.00;;;;;;4948691;28;20055;-73
2024/03/27 01:50:24;;;;;;;19.95;9.10;;;4.20;100.00;;;;;;4947673;28;20055;-73
2024/03/27 01:52:51;;;;;;;21.42;9.52;;;4.20;100.00;;;;;;4931363;28;20056;-73
2024/03/27 01:55:18;;;;;;;18.98;8.30;;;4.10;100.00;;;;;;4929065;29;20090;-73
2024/03/27 01:57:44;;;;;;;19.08;9.05;;;4.10;100.00;;;;;;4944076;28;20059;-73
2024/03/27 02:00:11;;;;;;;23.05;8.60;;;4.10;100.00;;;;;;4943558;28;20054;-73
2024/03/27 02:02:39;;;;;;;17.70;8.38;;;4.00;100.00;;;;;;4944544;28;20055;-73
2024/03/27 02:05:06;;;;;;;25.73;8.43;;;4.00;100.00;;;;;;4944399;28;20051;-73
2024/03/27 02:07:32;;;;;;;22.75;8.43;;;4.00;100.00;;;;;;4940459;28;20816;-73
2024/03/27 02:09:58;;;;;;;20.33;8.63;;;4.00;100.00;;;;;;4942875;28;20059;-73
2024/03/27 02:12:24;;;;;;;21.92;9.32;;;4.00;100.00;;;;;;4926775;29;20098;-73
2024/03/27 02:14:50;;;;;;;19.45;9.40;;;4.00;100.00;;;;;;4926548;29;20059;-73
2024/03/27 02:17:16;;;;;;;16.98;8.80;;;3.90;100.00;;;;;;4949476;28;20046;-73
2024/03/27 02:19:42;;;;;;;18.15;8.77;;;3.80;100.00;;;;;;4927602;29;20113;-73
2024/03/27 02:22:08;;;;;;;25.42;10.05;;;3.80;100.00;;;;;;4943951;28;20051;-73
2024/03/27 02:24:45;;;;;;;22.10;9.38;;;3.70;100.00;;;;;;4943869;28;20071;-73
2024/03/27 02:27:11;;;;;;;22.77;9.35;;;3.70;100.00;;;;;;4944464;28;20051;-73
2024/03/27 02:29:38;;;;;;;25.17;10.07;;;3.70;100.00;;;;;;4942270;28;20090;-73
2024/03/27 02:32:04;;;;;;;22.42;8.65;;;3.70;100.00;;;;;;4944839;28;20435;-73
2024/03/27 02:34:30;;;;;;;22.98;9.57;;;3.70;100.00;;;;;;4944379;28;20081;-73
2024/03/27 02:36:56;;;;;;;20.95;8.15;;;3.70;100.00;;;;;;4943490;28;20188;-73
2024/03/27 02:39:22;;;;;;;19.83;8.50;;;3.70;100.00;;;;;;4926678;29;20047;-73
2024/03/27 02:41:48;;;;;;;25.10;8.63;;;3.70;100.00;;;;;;4921428;29;20079;-74
2024/03/27 02:44:13;;;;;;;22.95;8.88;;;3.70;100.00;;;;;;4927185;29;20059;-73
2024/03/27 02:46:39;;;;;;;20.67;9.20;;;3.70;100.00;;;;;;4925170;29;20555;-73
2024/03/27 02:49:05;;;;;;;19.63;8.52;;;3.70;100.00;;;;;;4943596;29;20133;-74
2024/03/27 02:51:31;;;;;;;23.13;8.95;;;3.70;100.00;;;;;;4943489;28;20062;-73
2024/03/27 02:53:57;;;;;;;23.63;8.95;;;3.70;100.00;;;;;;4945487;28;20062;-73
2024/03/27 02:56:23;;;;;;;19.08;8.85;;;3.70;100.00;;;;;;4934689;29;20149;-73
2024/03/27 02:58:48;;;;;;;19.63;8.88;;;3.70;100.00;;;;;;4946301;28;20055;-73
2024/03/27 03:01:14;;;;;;;22.23;8.77;;;3.60;100.00;;;;;;4953230;28;20070;-73
2024/03/27 03:03:40;;;;;;;17.58;8.13;;;3.60;100.00;;;;;;4945593;28;20063;-74
2024/03/27 03:06:06;;;;;;;22.35;9.00;;;3.60;100.00;;;;;;4947162;28;20039;-73
2024/03/27 03:08:32;;;;;;;25.25;9.15;;;3.60;100.00;;;;;;4946542;28;20105;-73
2024/03/27 03:10:58;;;;;;;17.55;8.07;;;3.50;100.00;;;;;;4945830;28;20059;-73
2024/03/27 03:13:24;;;;;;;21.80;9.35;;;3.50;100.00;;;;;;4926720;29;20142;-74
2024/03/27 03:15:49;;;;;;;20.45;7.72;;;3.40;100.00;;;;;;4947566;29;20481;-73
2024/03/27 03:18:15;;;;;;;20.95;9.25;;;3.40;100.00;;;;;;4946003;28;20044;-73
2024/03/27 03:20:41;;;;;;;24.08;8.55;;;3.40;100.00;;;;;;4939067;29;20098;-74
2024/03/27 03:23:07;;;;;;;21.42;8.63;;;3.40;100.00;;;;;;4944432;28;20075;-73
2024/03/27 03:25:33;;;;;;;18.23;8.45;;;3.50;100.00;;;;;;4930597;29;20127;-73
2024/03/27 03:27:59;;;;;;;21.50;8.82;;;3.50;100.00;;;;;;4953234;28;20075;-73
2024/03/27 03:30:25;;;;;;;23.48;8.88;;;3.40;100.00;;;;;;4947049;28;20051;-73
2024/03/27 03:32:51;;;;;;;20.65;8.40;;;3.40;100.00;;;;;;4946848;28;20047;-73
2024/03/27 03:35:17;;;;;;;22.20;8.00;;;3.40;100.00;;;;;;4926734;29;20105;-73
2024/03/27 03:37:42;;;;;;;20.45;9.15;;;3.50;100.00;;;;;;4944898;28;20650;-73
2024/03/27 03:40:09;;;;;;;19.50;8.30;;;3.50;100.00;;;;;;4946880;28;20491;-72
2024/03/27 03:42:35;;;;;;;18.92;8.00;;;3.50;100.00;;;;;;4928665;28;20063;-73
2024/03/27 03:45:02;;;;;;;17.55;7.47;;;3.50;100.00;;;;;;4929424;29;20417;-73
2024/03/27 03:47:28;;;;;;;25.45;7.95;;;3.40;100.00;;;;;;4946358;28;20051;-73
2024/03/27 03:49:53;;;;;;;26.50;8.05;;;3.40;100.00;;;;;;4945443;28;20719;-73
2024/03/27 03:52:19;;;;;;;17.08;7.40;;;3.40;100.00;;;;;;4927776;29;20056;-73
2024/03/27 03:54:45;;;;;;;16.23;7.60;;;3.40;100.00;;;;;;4928409;29;20110;-72
2024/03/27 03:57:11;;;;;;;30.10;7.85;;;3.40;100.00;;;;;;4940809;28;20055;-72
2024/03/27 03:59:37;;;;;;;19.15;7.70;;;3.40;100.00;;;;;;4944495;28;20055;-73
2024/03/27 04:02:02;;;;;;;14.73;7.05;;;3.40;100.00;;;;;;4929859;29;20062;-72
2024/03/27 04:04:28;;;;;;;21.88;7.50;;;3.50;100.00;;;;;;4928395;28;20067;-72
2024/03/27 04:06:54;;;;;;;17.63;7.40;;;3.50;100.00;;;;;;4929393;29;20054;-72
2024/03/27 04:09:20;;;;;;;15.93;6.55;;;3.50;100.00;;;;;;4945389;28;20066;-73
2024/03/27 04:11:45;;;;;;;18.40;6.75;;;3.50;100.00;;;;;;4945651;28;20061;-73
2024/03/27 04:14:11;;;;;;;17.85;7.10;;;3.50;100.00;;;;;;4945045;28;20059;-73
2024/03/27 04:16:37;;;;;;;14.10;7.05;;;3.50;100.00;;;;;;4942600;28;20718;-73
2024/03/27 04:19:03;;;;;;;19.55;7.75;;;3.50;100.00;;;;;;4945624;28;20062;-72
2024/03/27 04:21:29;;;;;;;19.50;8.15;;;3.50;100.00;;;;;;4945403;28;20051;-73
2024/03/27 04:23:54;;;;;;;17.50;6.78;;;3.60;100.00;;;;;;4929576;29;20047;-72
2024/03/27 04:26:20;;;;;;;18.15;7.63;;;3.60;100.00;;;;;;4928490;28;20059;-72
2024/03/27 04:28:46;;;;;;;19.92;6.82;;;3.60;100.00;;;;;;4946746;28;20494;-72
2024/03/27 04:31:12;;;;;;;24.20;8.05;;;3.50;100.00;;;;;;4946770;28;20056;-72
2024/03/27 04:33:38;;;;;;;16.65;7.15;;;3.50;100.00;;;;;;4945784;28;20330;-72
2024/03/27 04:36:05;;;;;;;24.60;7.25;;;3.50;100.00;;;;;;4930119;29;20059;-73
2024/03/27 04:38:31;;;;;;;13.27;7.10;;;3.40;100.00;;;;;;4941840;28;20059;-73
2024/03/27 04:40:57;;;;;;;20.83;7.53;;;3.40;100.00;;;;;;4944171;28;20051;-72
2024/03/27 04:43:23;;;;;;;16.63;6.68;;;3.40;100.00;;;;;;4928956;29;20058;-72
2024/03/27 04:45:49;;;;;;;16.58;6.97;;;3.40;100.00;;;;;;4928690;28;20047;-72
2024/03/27 04:48:15;;;;;;;16.33;7.63;;;3.40;100.00;;;;;;4949291;28;20714;-72
2024/03/27 04:50:43;;;;;;;13.27;6.10;;;3.40;100.00;;;;;;4927550;29;20131;-72
2024/03/27 04:53:08;;;;;;;21.85;7.05;;;3.40;100.00;;;;;;4942381;28;20055;-73
2024/03/27 04:55:34;;;;;;;18.25;7.53;;;3.40;100.00;;;;;;4945546;28;20067;-73
2024/03/27 04:58:00;;;;;;;16.10;6.70;;;3.40;100.00;;;;;;4945142;28;20105;-73
2024/03/27 05:00:26;;;;;;;15.90;6.20;;;3.40;100.00;;;;;;4928275;28;20051;-73
2024/03/27 05:02:52;;;;;;;14.52;6.95;;;3.40;100.00;;;;;;4947515;28;20048;-72
2024/03/27 05:05:17;;;;;;;17.95;7.30;;;3.30;100.00;;;;;;4944656;29;20058;-72
2024/03/27 05:07:43;;;;;;;17.48;6.60;;;3.40;100.00;;;;;;4927986;29;20145;-72
2024/03/27 05:10:10;;;;;;;14.20;6.47;;;3.40;100.00;;;;;;4942932;28;20061;-72
2024/03/27 05:12:36;;;;;;;27.75;7.10;;;3.40;100.00;;;;;;4928877;28;20055;-72
2024/03/27 05:15:02;;;;;;;21.98;6.75;;;3.40;100.00;;;;;;4943111;28;20043;-73
2024/03/27 05:17:28;;;;;;;15.23;6.18;;;3.50;100.00;;;;;;4946107;28;20055;-72
2024/03/27 05:19:54;;;;;;;15.27;6.00;;;3.50;100.00;;;;;;4926224;29;20563;-72
2024/03/27 05:22:26;;;;;;;14.15;5.70;;;3.60;100.00;;;;;;4943335;28;20444;-73
2024/03/27 05:24:52;;;;;;;14.80;6.22;;;3.60;100.00;;;;;;4943889;28;20058;-73
2024/03/27 05:27:18;;;;;;;16.52;5.90;;;3.60;100.00;;;;;;4944536;28;20047;-80
2024/03/27 05:29:44;;;;;;;17.10;6.32;;;3.70;100.00;;;;;;4945653;28;20058;-76
2024/03/27 05:32:10;;;;;;;19.52;7.22;;;3.80;100.00;;;;;;4946741;28;20146;-75
2024/03/27 05:34:36;;;;;;;15.40;7.07;;;3.80;100.00;;;;;;4941397;28;20062;-72
2024/03/27 05:37:03;;;;;;;16.35;7.05;;;3.90;100.00;;;;;;4941355;28;20062;-72
2024/03/27 05:39:28;;;;;;;12.77;6.03;;;4.00;100.00;;;;;;4926568;29;20050;-72
2024/03/27 05:41:56;;;;;;;20.38;7.15;;;4.00;100.00;;;;;;4944363;28;20480;-81
2024/03/27 05:44:21;;;;;;;19.02;7.50;;;4.00;100.00;;;;;;4945784;28;20703;-70
2024/03/27 05:46:48;;;;;;;20.65;8.30;;;4.10;100.00;;;;;;4943686;28;20051;-72
2024/03/27 05:49:14;;;;;;;20.92;7.30;;;4.20;100.00;;;;;;4927765;29;20065;-72
2024/03/27 05:51:40;;;;;;;16.67;7.38;;;4.20;100.00;;;;;;4944360;28;20059;-70
2024/03/27 05:54:08;;;;;;;26.38;6.57;;;4.30;100.00;;;;;;4944683;28;20055;-72
2024/03/27 05:56:34;;;;;;;15.95;7.05;;;4.30;100.00;;;;;;4926380;29;20063;-73
2024/03/27 05:59:00;;;;;;;22.10;7.38;;;4.40;100.00;;;;;;4929348;28;20051;-74
2024/03/27 06:01:26;;;;;;;18.85;7.53;;;4.50;100.00;;;;;;4948234;28;20047;-74
2024/03/27 06:03:55;;;;;;;17.80;6.95;;;4.60;100.00;;;;;;4946069;28;20047;-74
2024/03/27 06:06:21;;;;;;;14.80;6.00;;;4.60;100.00;;;;;;4943803;28;20047;-74
2024/03/27 06:08:48;;;;;;;13.32;5.97;;;4.70;100.00;;;;;;4927513;28;20086;-74
2024/03/27 06:11:15;;;;;;;23.83;7.90;;;4.80;100.00;;;;;;4928325;29;20062;-74
2024/03/27 06:13:41;;;;;;;14.45;6.60;;;4.90;100.00;;;;;;4940097;28;20141;-74
2024/03/27 06:16:07;;;;;;;16.73;6.72;;;5.00;100.00;;;;;;4928440;29;20055;-74
2024/03/27 06:18:33;;;;;;;18.80;7.68;;;5.10;100.00;;;;;;4941703;28;20063;-74
2024/03/27 06:20:58;;;;;;;21.65;6.63;;;5.20;100.00;;;;;;4944802;28;20039;-74
2024/03/27 06:23:25;;;;;;;27.35;7.30;;;5.40;100.00;;;;;;4943159;28;20054;-74
2024/03/27 06:25:58;;;;;;;20.15;6.68;;;5.50;100.00;;;;;;4930722;29;20495;-74
2024/03/27 06:28:24;;;;;;;17.92;5.93;;;5.70;100.00;;;;;;4928496;28;20067;-74
2024/03/27 06:30:58;;;;;;;14.27;5.95;;;5.90;100.00;;;;;;4940637;28;20791;-74
2024/03/27 06:33:24;;;;;;;13.80;5.63;;;6.10;100.00;;;;;;4948764;28;20138;-74
2024/03/27 06:35:51;;;;;;;16.60;6.07;;;6.30;100.00;;;;;;4943103;28;20058;-74
2024/03/27 06:38:22;;;;;;;15.32;5.45;;;6.60;100.00;;;;;;4948967;28;20058;-74
2024/03/27 06:40:48;;;;;;;13.25;6.00;;;6.70;100.00;;;;;;4933629;29;20496;-74
2024/03/27 06:43:15;;;;;;;16.15;5.97;;;6.90;100.00;;;;;;4932215;28;20055;-74
2024/03/27 06:45:46;;;;;;;12.68;5.75;;;7.00;100.00;;;;;;4947459;28;20083;-74
2024/03/27 06:48:12;;;;;;;13.07;5.75;;;7.10;100.00;;;;;;4929475;28;20557;-74
2024/03/27 06:50:38;;;;;;;18.00;5.45;;;7.20;100.00;;;;;;4944512;28;20102;-74
2024/03/27 06:53:06;;;;;;;14.20;5.63;;;7.20;100.00;;;;;;4945162;28;20055;-74
2024/03/27 06:55:32;;;;;;;13.80;5.45;;;7.30;100.00;;;;;;4945578;28;20055;-73
2024/03/27 06:57:58;;;;;;;12.18;5.20;;;7.50;100.00;;;;;;4934639;29;20054;-73
2024/03/27 07:00:24;;;;;;;16.70;5.38;;;7.50;100.00;;;;;;4951212;28;20059;-73
2024/03/27 07:02:50;;;;;;;16.48;5.13;;;7.60;100.00;;;;;;4929127;28;20051;-73
2024/03/27 07:05:16;;;;;;;10.90;5.22;;;7.60;100.00;;;;;;4948777;28;20051;-74
2024/03/27 07:07:42;;;;;;;13.48;5.13;;;7.60;100.00;;;;;;4940277;28;20051;-74
2024/03/27 07:10:09;;;;;;;15.00;5.18;;;7.70;100.00;;;;;;4943110;28;20062;-76
2024/03/27 07:12:36;;;;;;;20.73;5.40;;;7.80;100.00;;;;;;4951174;28;20066;-77
2024/03/27 07:15:02;;;;;;;14.73;5.25;;;7.80;100.00;;;;;;4947720;28;20070;-73
2024/03/27 07:17:28;;;;;;;16.02;4.95;;;7.90;100.00;;;;;;4933542;29;20055;-73
2024/03/27 07:19:54;;;;;;;11.25;5.45;;;8.00;100.00;;;;;;4932273;28;20118;-71
2024/03/27 07:22:20;;;;;;;10.57;4.75;;;8.00;100.00;;;;;;4943024;28;20688;-73
2024/03/27 07:24:50;;;;;;;19.23;5.43;;;8.00;100.00;;;;;;4939953;28;20408;-72
2024/03/27 07:27:16;;;;;;;13.27;4.70;;;8.10;100.00;;;;;;4929291;28;20472;-74
2024/03/27 07:29:42;;;;;;;10.35;4.25;;;8.20;100.00;;;;;;4941355;28;20060;-71
2024/03/27 07:32:08;;;;;;;12.27;5.07;;;8.30;100.00;;;;;;4923873;28;20063;-72
2024/03/27 07:34:34;;;;;;;19.98;5.13;;;8.40;100.00;;;;;;4938991;28;20122;-71
2024/03/27 07:37:00;;;;;;;17.45;5.60;;;8.60;100.00;;;;;;4941646;28;20070;-71
2024/03/27 07:39:26;;;;;;;14.98;5.47;;;8.70;100.00;;;;;;4942665;28;20051;-72
2024/03/27 07:41:52;;;;;;;11.13;4.65;;;8.80;100.00;;;;;;4940393;28;20047;-71
2024/03/27 07:44:18;;;;;;;13.75;5.22;;;8.90;100.00;;;;;;4944107;28;20126;-71
2024/03/27 07:46:53;;;;;;;23.60;5.05;;;9.10;100.00;;;;;;4947191;28;20051;-71
2024/03/27 07:49:22;;;;;;;13.40;4.93;;;9.20;100.00;;;;;;4944814;28;20140;-71
2024/03/27 07:51:48;;;;;;;10.43;5.32;;;9.30;100.00;;;;;;4945414;28;20055;-71
2024/03/27 07:54:13;;;;;;;13.45;4.75;;;9.40;100.00;;;;;;4928798;28;20166;-72
2024/03/27 07:56:43;;;;;;;11.45;4.93;;;9.60;100.00;;;;;;4943595;28;20063;-72
2024/03/27 07:59:10;;;;;;;11.20;4.70;;;9.70;100.00;;;;;;4942977;28;20051;-71
2024/03/27 08:01:36;;;;;;;14.07;5.07;;;9.80;100.00;;;;;;4930324;29;20047;-71
2024/03/27 08:04:03;;;;;;;11.23;4.63;;;9.90;100.00;;;;;;4929929;28;20615;-71
2024/03/27 08:06:29;;;;;;;19.95;4.82;;;10.00;100.00;;;;;;4945969;28;20528;-71
2024/03/27 08:08:55;;;;;;;10.25;4.55;;;10.10;100.00;;;;;;4929616;28;20060;-71
2024/03/27 08:11:22;;;;;;;9.88;4.28;;;10.10;100.00;;;;;;4945371;28;20061;-70
2024/03/27 08:13:48;;;;;;;11.10;3.90;;;10.10;100.00;;;;;;4944767;28;20063;-70
2024/03/27 08:16:14;;;;;;;9.75;4.18;;;10.40;100.00;;;;;;4929333;29;20075;-70
2024/03/27 08:18:42;;;;;;;12.07;4.68;;;10.70;100.00;;;;;;4944862;28;20110;-71
2024/03/27 08:21:07;;;;;;;10.63;4.30;;;10.70;100.00;;;;;;4943935;28;20054;-69
2024/03/27 08:23:33;;;;;;;14.07;4.78;;;11.20;100.00;;;;;;4941982;28;20055;-70
2024/03/27 08:25:59;;;;;;;14.45;4.05;;;11.50;100.00;;;;;;4947811;28;20051;-69
2024/03/27 08:28:25;;;;;;;13.27;4.38;;;11.80;100.00;;;;;;4947201;28;20050;-70
2024/03/27 08:30:51;;;;;;;11.75;3.97;;;11.90;100.00;;;;;;4945943;28;20070;-70
2024/03/27 08:33:17;;;;;;;9.43;4.07;;;12.10;100.00;;;;;;4951922;28;20065;-70
2024/03/27 08:35:42;;;;;;;15.02;4.10;;;12.50;100.00;;;;;;4929654;29;20071;-70
2024/03/27 08:38:09;;;;;;;12.55;3.45;;;12.70;100.00;;;;;;4936007;28;20803;-70
2024/03/27 08:40:35;;;;;;;21.10;4.20;;;13.00;100.00;;;;;;4929859;29;20055;-70
2024/03/27 08:43:02;;;;;;;10.02;4.78;;;12.90;100.00;;;;;;4953459;28;20059;-70
2024/03/27 08:45:28;;;;;;;8.68;4.30;;;12.90;100.00;;;;;;4932816;28;20080;-70
2024/03/27 08:47:54;;;;;;;13.15;4.15;;;13.00;100.00;;;;;;4930306;29;20051;-70
2024/03/27 08:50:20;;;;;;;9.50;3.70;;;13.00;100.00;;;;;;4945285;28;20058;-70
2024/03/27 08:52:47;;;;;;;9.43;3.95;;;13.30;100.00;;;;;;4938229;28;20089;-70
2024/03/27 08:55:13;;;;;;;8.75;3.65;;;13.40;100.00;;;;;;4948130;28;20058;-70
2024/03/27 08:57:39;;;;;;;17.27;4.53;;;13.60;100.00;;;;;;4928844;29;20066;-70
2024/03/27 09:00:10;;;;;;;12.63;4.35;;;13.80;100.00;;;;;;4935240;28;20054;-70
2024/03/27 09:02:36;;;;;;;9.98;3.60;;;14.10;100.00;;;;;;4957032;28;20844;-70
2024/03/27 09:05:02;;;;;;;9.55;3.58;;;14.40;100.00;;;;;;4929456;28;20067;-70
2024/03/27 09:07:28;;;;;;;9.68;4.20;;;14.50;100.00;;;;;;4947155;28;20133;-70
2024/03/27 09:09:54;;;;;;;12.27;3.97;;;14.80;100.00;;;;;;4943659;28;20483;-70
2024/03/27 09:12:20;;;;;;;8.70;3.53;;;15.30;100.00;;;;;;4949601;28;20138;-70
2024/03/27 09:14:45;;;;;;;5.93;3.35;;;15.70;100.00;;;;;;4945222;28;20055;-70
2024/03/27 09:17:11;;;;;;;9.30;3.60;;;15.90;93.70;;;;;;4955556;28;20065;-70
2024/03/27 09:19:37;;;;;;;15.40;3.70;;;16.10;78.50;;;;;;4931298;29;20150;-70
2024/03/27 09:22:03;;;;;;;6.13;3.30;;;16.30;78.60;;;;;;4945529;28;20062;-70
2024/03/27 09:24:30;;;;;;;6.43;3.15;;;16.60;78.40;;;;;;4927838;29;20055;-70
2024/03/27 09:27:00;;;;;;;11.55;3.38;;;16.70;75.60;;;;;;4953499;28;20055;-70
2024/03/27 09:29:25;;;;;;;8.30;3.28;;;16.90;75.40;;;;;;4946947;28;20058;-70
2024/03/27 09:31:52;;;;;;;10.90;3.38;;;17.10;76.60;;;;;;4949706;28;20122;-71
2024/03/27 09:34:18;;;;;;;7.70;3.25;;;17.40;73.40;;;;;;4949510;28;20055;-71
2024/03/27 09:36:45;;;;;;;8.55;3.28;;;17.60;50.90;;;;;;4941684;28;20475;-71
2024/03/27 09:39:12;;;;;;;11.50;3.30;;;17.60;53.30;;;;;;4940040;28;20059;-70
2024/03/27 09:41:38;;;;;;;6.65;2.90;;;18.00;52.80;;;;;;4944494;28;20066;-70
2024/03/27 09:44:06;;;;;;;8.52;3.10;;;18.20;51.50;;;;;;4923626;29;20568;-71
2024/03/27 09:46:36;;;;;;;14.60;3.35;;;18.30;52.90;;;;;;4951187;28;20057;-70
2024/03/27 09:49:04;;;;;;;8.98;3.53;;;18.40;51.80;;;;;;4938967;28;20051;-71
2024/03/27 09:51:33;;;;;;;8.18;3.47;;;18.70;50.20;;;;;;4944508;28;20473;-71
2024/03/27 09:54:04;;;;;;;11.65;4.38;;;18.70;49.60;;;;;;4945487;28;20661;-70
2024/03/27 09:56:31;;;;;;;9.82;3.40;;;18.80;50.70;;;;;;4955084;28;20051;-71
2024/03/27 09:58:57;;;;;;;10.82;3.50;;;19.20;50.90;;;;;;4933186;28;20047;-71
2024/03/27 10:01:23;;;;;;;7.72;3.28;;;19.60;50.00;;;;;;4949869;28;20253;-71
2024/03/27 10:03:49;;;;;;;8.85;3.50;;;19.60;47.60;;;;;;4945464;28;20047;-71
2024/03/27 10:06:15;;;;;;;5.57;3.20;;;20.00;48.90;;;;;;4952706;28;20384;-71
2024/03/27 10:08:41;;;;;;;5.18;3.03;;;20.30;47.60;;;;;;4954453;28;20051;-71
2024/03/27 10:11:07;;;;;;;7.53;3.35;;;20.10;47.30;;;;;;4952425;28;20124;-71
2024/03/27 10:13:33;;;;;;;8.23;3.30;;;20.20;47.10;;;;;;4953672;28;20047;-71
2024/03/27 10:15:59;;;;;;;5.95;2.85;;;20.40;46.30;;;;;;4944147;28;20507;-70
2024/03/27 10:18:26;;;;;;;9.77;3.38;;;20.50;47.20;;;;;;4947864;28;20047;-70
2024/03/27 10:20:51;;;;;;;5.25;3.00;;;20.60;48.40;;;;;;4942575;28;20052;-71
2024/03/27 10:23:17;;;;;;;6.80;3.47;;;20.90;45.80;;;;;;4948228;28;20730;-70
2024/03/27 10:25:44;;;;;;;6.30;2.85;;;20.90;46.20;;;;;;4934656;28;20051;-70
2024/03/27 10:28:10;;;;;;;6.22;3.30;;;21.10;46.00;;;;;;4943105;28;20052;-70
2024/03/27 10:30:37;;;;;;;9.68;3.05;;;21.50;45.40;;;;;;4948002;28;20071;-70
2024/03/27 10:33:04;;;;;;;8.00;2.92;;;21.40;45.60;;;;;;4952186;28;20051;-70
2024/03/27 10:35:36;;;;;;;9.10;3.22;;;21.50;46.90;;;;;;4943798;28;20512;-71
2024/03/27 10:38:02;;;;;;;8.85;3.20;;;21.50;45.80;;;;;;4929880;29;20497;-73
2024/03/27 10:40:29;;;;;;;7.38;3.53;;;21.30;43.60;;;;;;4944005;28;20432;-78
2024/03/27 10:43:23;;;;;;;12.50;3.70;;;21.10;45.00;;;;;;4929850;28;20054;-72
2024/03/27 10:45:51;;;;;;;7.63;2.90;;;21.60;43.70;;;;;;4945758;28;20043;-69
2024/03/27 10:48:17;;;;;;;6.22;3.20;;;21.60;43.50;;;;;;4948900;28;20047;-69
2024/03/27 10:50:44;;;;;;;13.05;3.17;;;21.80;45.50;;;;;;4945605;28;20051;-69
2024/03/27 10:53:13;;;;;;;7.63;3.88;;;22.00;44.80;;;;;;4944692;28;20055;-70
2024/03/27 10:55:40;;;;;;;8.68;3.35;;;22.20;43.90;;;;;;4946901;28;20051;-69
2024/03/27 10:58:08;;;;;;;6.10;2.92;;;22.60;44.20;;;;;;4926947;29;20055;-70
2024/03/27 11:00:35;;;;;;;4.90;3.00;;;22.80;41.70;;;;;;4929812;28;20059;-70
2024/03/27 11:03:04;;;;;;;7.00;3.13;;;23.20;43.50;;;;;;4945066;28;20058;-69
2024/03/27 11:05:30;;;;;;;5.15;3.08;;;23.50;40.60;;;;;;4931296;28;20051;-70
2024/03/27 11:08:00;;;;;;;11.27;3.20;;;23.50;41.20;;;;;;4926523;29;20114;-71
2024/03/27 11:10:27;;;;;;;5.93;3.17;;;23.70;41.90;;;;;;4947269;28;20066;-70
2024/03/27 11:12:57;;;;;;;16.45;3.40;;;24.20;41.50;;;;;;4946181;28;20110;-70
2024/03/27 11:15:24;;;;;;;9.82;2.72;;;24.40;39.50;;;;;;4947897;28;20062;-70
2024/03/27 11:17:54;;;;;;;10.05;3.42;;;23.50;39.50;;;;;;4948273;28;20424;-71
2024/03/27 11:20:24;;;;;;;7.38;3.17;;;23.40;41.20;;;;;;4925334;29;20051;-71
2024/03/27 11:22:55;;;;;;;9.57;3.30;;;23.10;39.80;;;;;;4946332;28;20146;-71
2024/03/27 11:25:24;;;;;;;6.20;3.33;;;22.70;40.70;;;;;;4946005;28;20130;-72
2024/03/27 11:27:51;;;;;;;8.10;3.30;;;22.80;41.80;;;;;;4945689;28;20073;-69
2024/03/27 11:30:18;;;;;;;6.90;3.20;;;23.00;41.80;;;;;;4946351;28;20531;-70
2024/03/27 11:32:45;;;;;;;5.65;3.00;;;23.50;40.40;;;;;;4950334;28;20058;-76
2024/03/27 11:35:14;;;;;;;6.82;3.28;;;23.60;41.60;;;;;;4939620;28;20118;-73
2024/03/27 11:37:40;;;;;;;7.05;2.88;;;23.80;40.40;;;;;;4948381;28;20066;-74
2024/03/27 11:40:08;;;;;;;10.60;3.03;;;24.00;39.90;;;;;;4948678;28;20048;-73
2024/03/27 11:42:36;;;;;;;8.43;3.53;;;23.70;40.40;;;;;;4943609;28;20066;-77
2024/03/27 11:45:03;;;;;;;10.32;3.60;;;24.20;41.10;;;;;;4944101;28;20062;-74
2024/03/27 11:47:29;;;;;;;5.32;2.50;;;24.50;39.70;;;;;;4951747;28;20047;-72
2024/03/27 11:49:55;;;;;;;10.60;2.92;;;24.50;39.40;;;;;;4945068;29;20059;-71
2024/03/27 11:52:21;;;;;;;9.48;2.80;;;24.70;39.70;;;;;;4941831;28;20059;-71
2024/03/27 11:54:47;;;;;;;5.28;2.45;;;24.80;39.30;;;;;;4944608;28;20070;-71
2024/03/27 11:57:12;;;;;;;6.03;2.67;;;25.50;39.80;;;;;;4944108;28;21401;-71
2024/03/27 11:59:38;;;;;;;4.93;2.75;;;25.90;38.50;;;;;;4942026;28;20058;-71
2024/03/27 12:02:04;;;;;;;10.70;2.92;;;25.80;38.40;;;;;;4945211;28;20615;-71
2024/03/27 12:04:30;;;;;;;7.35;2.22;;;25.70;36.80;;;;;;4944863;29;20130;-71
2024/03/27 12:06:57;;;;;;;8.27;3.00;;;24.90;38.40;;;;;;4944054;28;20055;-71
2024/03/27 12:09:23;;;;;;;9.32;2.72;;;24.80;39.10;;;;;;4944543;28;20066;-71
2024/03/27 12:11:50;;;;;;;4.20;2.40;;;24.40;37.60;;;;;;4948556;28;20063;-70
2024/03/27 12:14:17;;;;;;;9.52;2.58;;;24.10;38.70;;;;;;4943895;28;20050;-71
2024/03/27 12:16:44;;;;;;;15.90;3.17;;;24.10;39.80;;;;;;4925342;28;20063;-73
2024/03/27 12:19:10;;;;;;;7.70;2.45;;;24.00;40.10;;;;;;4945854;28;20051;-75
2024/03/27 12:21:39;;;;;;;6.32;2.55;;;24.10;39.20;;;;;;4944085;28;20500;-75
2024/03/27 12:24:06;;;;;;;9.63;2.63;;;24.10;39.40;;;;;;4929490;29;20066;-75
2024/03/27 12:26:32;;;;;;;7.03;2.47;;;23.80;40.20;;;;;;4945004;28;20050;-75
2024/03/27 12:28:58;;;;;;;9.73;3.33;;;23.90;41.30;;;;;;4943946;28;20051;-74
2024/03/27 12:31:27;;;;;;;5.80;2.95;;;23.70;40.10;;;;;;4946008;28;20090;-75
2024/03/27 12:33:54;;;;;;;5.88;2.80;;;23.70;40.30;;;;;;4920067;29;20516;-77